Time;durP1;ratioP1;P1;durP2;ratioP2;P2;SDS_P1;SDS_P2;PMS_P1;PMS_P2;Temp;Humidity;BMP_temperature;BMP_pressure;BME280_temperature;BME280_humidity;BME280_pressure;Samples;Min_cycle;Max_cycle;Signal;HPM_P1;HPM_P2
2022/05/22 00:02:03;;;;;;;4.38;1.90;;;14.90;80.60;;;;;;5005773;28;20036;-69
2022/05/22 00:04:29;;;;;;;4.25;1.55;;;14.90;80.80;;;;;;4992419;28;20472;-69
2022/05/22 00:06:55;;;;;;;8.18;2.10;;;15.00;80.90;;;;;;4999664;28;20033;-68
2022/05/22 00:09:21;;;;;;;4.68;1.55;;;14.90;80.90;;;;;;5010324;28;20444;-69
2022/05/22 00:11:47;;;;;;;5.13;1.70;;;14.90;81.20;;;;;;5007940;28;20022;-69
2022/05/22 00:14:13;;;;;;;7.80;2.35;;;14.90;81.10;;;;;;4992801;28;20033;-69
2022/05/22 00:16:42;;;;;;;3.83;1.55;;;14.90;81.30;;;;;;5010508;28;20076;-70
2022/05/22 00:19:19;;;;;;;3.60;1.48;;;14.90;81.50;;;;;;5004186;28;20025;-69
2022/05/22 00:21:45;;;;;;;3.17;1.60;;;14.90;81.70;;;;;;4994423;28;20699;-68
2022/05/22 00:24:13;;;;;;;5.05;1.73;;;14.90;82.20;;;;;;5004491;28;20034;-68
2022/05/22 00:26:39;;;;;;;4.60;1.70;;;14.90;81.70;;;;;;4993598;28;20033;-68
2022/05/22 00:29:05;;;;;;;2.63;1.52;;;15.00;81.70;;;;;;5005283;28;20026;-67
2022/05/22 00:31:31;;;;;;;5.15;2.45;;;15.00;81.90;;;;;;4992168;28;20099;-68
2022/05/22 00:33:57;;;;;;;3.88;1.50;;;15.00;81.80;;;;;;4995960;28;20489;-68
2022/05/22 00:36:23;;;;;;;4.68;1.70;;;15.00;82.00;;;;;;4991686;28;20029;-68
2022/05/22 00:38:49;;;;;;;7.25;2.22;;;15.00;81.90;;;;;;5011013;28;20425;-69
2022/05/22 00:41:15;;;;;;;4.55;1.52;;;15.00;81.90;;;;;;5015036;28;20133;-68
2022/05/22 00:43:45;;;;;;;3.20;1.27;;;15.10;81.70;;;;;;5014512;28;20054;-68
2022/05/22 00:46:13;;;;;;;5.35;1.77;;;15.10;81.50;;;;;;4996832;28;20065;-69
2022/05/22 00:48:42;;;;;;;6.90;1.58;;;15.00;81.40;;;;;;5002541;28;20563;-68
2022/05/22 00:51:13;;;;;;;7.68;2.58;;;15.00;81.70;;;;;;4994847;28;20473;-69
2022/05/22 00:53:43;;;;;;;4.93;1.40;;;14.90;81.80;;;;;;5013644;28;20065;-68
2022/05/22 00:56:16;;;;;;;6.65;1.92;;;15.00;81.80;;;;;;5006447;28;20508;-68
2022/05/22 00:58:44;;;;;;;2.25;1.45;;;15.00;81.90;;;;;;5013718;28;20078;-68
2022/05/22 01:01:09;;;;;;;7.53;1.95;;;14.90;81.80;;;;;;5007999;28;20046;-68
2022/05/22 01:03:36;;;;;;;4.15;1.48;;;14.80;82.10;;;;;;5012723;28;20033;-68
2022/05/22 01:06:20;;;;;;;4.35;2.00;;;14.90;82.10;;;;;;5015353;28;20473;-68
2022/05/22 01:08:47;;;;;;;3.75;1.60;;;14.80;82.10;;;;;;5003586;28;20418;-68
2022/05/22 01:11:18;;;;;;;9.85;1.60;;;14.80;82.10;;;;;;4995721;28;20470;-68
2022/05/22 01:13:56;;;;;;;5.45;1.65;;;14.80;82.40;;;;;;5013518;28;20076;-69
2022/05/22 01:16:21;;;;;;;8.38;2.58;;;14.90;82.60;;;;;;4996327;28;20125;-69
2022/05/22 01:18:53;;;;;;;6.57;2.00;;;14.80;82.50;;;;;;5013561;28;20117;-68
2022/05/22 01:21:38;;;;;;;5.82;1.60;;;14.70;82.80;;;;;;5015232;28;20042;-69
2022/05/22 01:24:04;;;;;;;3.67;1.50;;;14.70;83.10;;;;;;5007945;28;20457;-69
2022/05/22 01:26:30;;;;;;;6.80;2.63;;;14.80;83.00;;;;;;5011712;28;20032;-68
2022/05/22 01:28:56;;;;;;;4.15;1.88;;;14.80;83.20;;;;;;4999231;28;20105;-68
2022/05/22 01:31:22;;;;;;;4.38;1.30;;;14.70;83.40;;;;;;5006283;28;20026;-69
2022/05/22 01:33:47;;;;;;;6.50;2.10;;;14.70;83.30;;;;;;5014175;28;20084;-68
2022/05/22 01:36:16;;;;;;;2.88;1.60;;;14.60;83.50;;;;;;5014820;28;20076;-69
2022/05/22 01:38:41;;;;;;;6.95;2.03;;;14.70;83.90;;;;;;5012529;28;20029;-69
2022/05/22 01:41:07;;;;;;;6.05;1.60;;;14.60;83.90;;;;;;5014171;28;20045;-69
2022/05/22 01:43:33;;;;;;;2.10;1.45;;;14.60;84.00;;;;;;5013352;28;20498;-69
2022/05/22 01:45:58;;;;;;;4.88;1.52;;;14.60;84.20;;;;;;4999609;28;20070;-69
2022/05/22 01:48:24;;;;;;;6.82;1.90;;;14.60;84.10;;;;;;4998106;28;20524;-69
2022/05/22 01:50:51;;;;;;;4.82;1.88;;;14.60;84.20;;;;;;5013802;28;20084;-69
2022/05/22 01:53:18;;;;;;;5.45;1.67;;;14.60;84.40;;;;;;5010602;28;20481;-69
2022/05/22 01:55:44;;;;;;;6.47;2.00;;;14.60;84.30;;;;;;5002102;28;20046;-69
2022/05/22 01:58:10;;;;;;;4.35;1.60;;;14.70;84.60;;;;;;4994636;28;20390;-69
2022/05/22 02:00:36;;;;;;;5.28;1.70;;;14.70;84.70;;;;;;4994837;28;20672;-69
2022/05/22 02:03:02;;;;;;;6.45;1.50;;;14.60;84.80;;;;;;5005465;28;20022;-69
2022/05/22 02:05:28;;;;;;;5.32;2.05;;;14.60;85.00;;;;;;5014071;28;20026;-69
2022/05/22 02:10:38;;;;;;;12.75;2.08;;;14.60;85.20;;;;;;4994914;28;20544;-69
2022/05/22 02:13:04;;;;;;;5.43;1.95;;;14.60;85.20;;;;;;4995296;28;20113;-69
2022/05/22 02:15:30;;;;;;;8.25;1.70;;;14.60;85.50;;;;;;5014334;28;20030;-69
2022/05/22 02:17:57;;;;;;;6.28;2.08;;;14.60;85.50;;;;;;5006969;28;20030;-70
2022/05/22 02:20:23;;;;;;;4.90;2.05;;;14.60;85.70;;;;;;5012240;28;20061;-69
2022/05/22 02:22:52;;;;;;;8.02;1.85;;;14.60;85.80;;;;;;5013427;28;20096;-69
2022/05/22 02:25:20;;;;;;;6.32;1.70;;;14.60;86.00;;;;;;5012884;28;20095;-69
2022/05/22 02:27:46;;;;;;;6.43;1.80;;;14.60;85.90;;;;;;5013929;28;20025;-69
2022/05/22 02:30:15;;;;;;;9.15;1.70;;;14.60;86.10;;;;;;5001628;28;20022;-69
2022/05/22 02:32:41;;;;;;;8.68;2.05;;;14.60;86.20;;;;;;5002296;28;20516;-69
2022/05/22 02:35:10;;;;;;;5.85;1.80;;;14.60;86.20;;;;;;5008076;28;20038;-69
2022/05/22 02:37:50;;;;;;;3.58;1.67;;;14.70;86.30;;;;;;4994067;28;20092;-68
2022/05/22 02:40:18;;;;;;;9.25;1.95;;;14.70;86.40;;;;;;5000127;28;20042;-67
2022/05/22 02:42:46;;;;;;;11.68;3.08;;;14.70;86.50;;;;;;5012032;28;20032;-68
2022/05/22 02:45:14;;;;;;;3.40;1.63;;;14.60;86.50;;;;;;5011297;28;20130;-68
2022/05/22 02:47:40;;;;;;;5.32;1.58;;;14.60;86.50;;;;;;5013271;28;20018;-68
2022/05/22 02:50:06;;;;;;;4.28;1.30;;;14.60;86.80;;;;;;5009227;28;20025;-68
2022/05/22 02:52:32;;;;;;;5.85;1.83;;;14.70;86.80;;;;;;5008927;28;20073;-68
2022/05/22 02:54:57;;;;;;;5.22;2.00;;;14.70;86.70;;;;;;4997365;28;20446;-68
2022/05/22 02:57:23;;;;;;;8.25;1.70;;;14.70;86.70;;;;;;5013337;28;20040;-67
2022/05/22 02:59:49;;;;;;;4.93;1.70;;;14.70;86.70;;;;;;4997182;28;20548;-68
2022/05/22 03:02:15;;;;;;;6.30;2.00;;;14.60;86.70;;;;;;4993073;28;20122;-68
2022/05/22 03:04:40;;;;;;;11.60;2.45;;;14.60;86.80;;;;;;4994736;28;20116;-67
2022/05/22 03:07:09;;;;;;;6.10;2.10;;;14.60;86.80;;;;;;5001901;28;20022;-67
2022/05/22 03:09:37;;;;;;;10.82;2.67;;;14.60;87.20;;;;;;4998382;28;20046;-68
2022/05/22 03:12:09;;;;;;;7.20;1.70;;;14.50;87.30;;;;;;4993130;28;20037;-68
2022/05/22 03:14:34;;;;;;;5.65;2.08;;;14.50;87.50;;;;;;5007612;28;20022;-68
2022/05/22 03:17:00;;;;;;;4.88;1.92;;;14.50;87.60;;;;;;5012873;28;20116;-68
2022/05/22 03:19:25;;;;;;;5.40;1.60;;;14.50;87.80;;;;;;5000975;28;20064;-68
2022/05/22 03:21:51;;;;;;;8.23;2.08;;;14.50;87.90;;;;;;4993402;28;20034;-68
2022/05/22 03:24:17;;;;;;;4.53;2.10;;;14.50;88.10;;;;;;4994480;28;20085;-68
2022/05/22 03:26:42;;;;;;;11.38;2.20;;;14.50;88.40;;;;;;4993220;28;20363;-68
2022/05/22 03:29:08;;;;;;;5.25;1.98;;;14.50;88.40;;;;;;4999964;28;20269;-68
2022/05/22 03:31:33;;;;;;;8.52;2.58;;;14.50;88.40;;;;;;5012641;28;20516;-68
2022/05/22 03:33:59;;;;;;;6.28;2.22;;;14.50;88.60;;;;;;5004848;28;20038;-68
2022/05/22 03:36:24;;;;;;;6.50;2.28;;;14.50;88.60;;;;;;4993280;28;20484;-68
2022/05/22 03:38:50;;;;;;;6.65;1.92;;;14.40;88.80;;;;;;5004763;28;20022;-68
2022/05/22 03:41:15;;;;;;;8.02;2.25;;;14.40;89.00;;;;;;4992969;28;20030;-69
2022/05/22 03:43:41;;;;;;;5.20;2.20;;;14.40;89.20;;;;;;5003723;28;20045;-68
2022/05/22 03:46:06;;;;;;;7.10;2.00;;;14.40;89.30;;;;;;5008991;28;20732;-68
2022/05/22 03:48:32;;;;;;;4.25;1.80;;;14.40;89.50;;;;;;4998529;28;20481;-68
2022/05/22 03:50:57;;;;;;;7.85;1.83;;;14.40;89.70;;;;;;5012511;28;20056;-69
2022/05/22 03:53:23;;;;;;;5.97;2.33;;;14.50;89.90;;;;;;4995785;28;20412;-68
2022/05/22 03:55:48;;;;;;;8.13;2.38;;;14.50;90.00;;;;;;5010446;28;20034;-69
2022/05/22 03:58:17;;;;;;;6.80;1.77;;;14.50;90.00;;;;;;5010610;28;20042;-69
2022/05/22 04:00:43;;;;;;;8.50;2.03;;;14.60;90.00;;;;;;5011967;28;20485;-68
2022/05/22 04:03:08;;;;;;;5.30;1.63;;;14.60;90.10;;;;;;5009230;28;20129;-68
2022/05/22 04:05:34;;;;;;;5.15;2.13;;;14.60;90.10;;;;;;5001476;28;20080;-68
2022/05/22 04:08:00;;;;;;;6.13;2.25;;;14.60;90.10;;;;;;5007804;28;20381;-69
2022/05/22 04:10:25;;;;;;;7.30;2.40;;;14.60;90.10;;;;;;5006589;28;20049;-68
2022/05/22 04:12:51;;;;;;;6.90;2.20;;;14.60;90.20;;;;;;4990879;28;20023;-75
2022/05/22 04:15:20;;;;;;;4.20;1.88;;;14.60;90.20;;;;;;5001639;28;20109;-75
2022/05/22 04:17:47;;;;;;;5.53;2.00;;;14.60;90.30;;;;;;4997444;28;20022;-71
2022/05/22 04:20:14;;;;;;;5.43;2.42;;;14.60;90.40;;;;;;4992684;28;20051;-72
2022/05/22 04:25:25;;;;;;;5.05;1.95;;;14.60;90.50;;;;;;4992360;28;20030;-75
2022/05/22 04:27:51;;;;;;;8.43;2.40;;;14.60;90.50;;;;;;4995393;28;20037;-76
2022/05/22 04:30:18;;;;;;;6.78;2.67;;;14.60;90.50;;;;;;5010243;28;20034;-75
2022/05/22 04:32:48;;;;;;;7.28;2.17;;;14.70;90.60;;;;;;5012105;28;20026;-76
2022/05/22 04:35:14;;;;;;;9.00;2.40;;;14.70;90.60;;;;;;5009538;28;20029;-76
2022/05/22 04:37:40;;;;;;;5.57;1.92;;;14.70;90.60;;;;;;5011809;28;20034;-75
2022/05/22 04:40:07;;;;;;;8.48;2.50;;;14.80;90.70;;;;;;5009823;28;20117;-76
2022/05/22 04:42:34;;;;;;;6.32;1.85;;;14.80;90.70;;;;;;5002889;28;20037;-76
2022/05/22 04:44:59;;;;;;;5.93;2.30;;;14.80;90.70;;;;;;4992958;28;20023;-76
2022/05/22 04:47:25;;;;;;;7.97;2.28;;;14.80;90.70;;;;;;4992380;28;20453;-75
2022/05/22 04:49:50;;;;;;;7.03;2.13;;;14.80;90.80;;;;;;5008173;28;20021;-75
2022/05/22 04:52:16;;;;;;;7.53;2.60;;;14.90;90.70;;;;;;5010361;28;20022;-75
2022/05/22 04:54:42;;;;;;;10.80;3.17;;;15.00;90.80;;;;;;5004581;28;20037;-76
2022/05/22 04:57:07;;;;;;;7.22;2.25;;;15.00;90.90;;;;;;4997891;28;20022;-78
2022/05/22 04:59:33;;;;;;;7.07;2.50;;;15.10;90.80;;;;;;4992326;28;20030;-78
2022/05/22 05:02:01;;;;;;;4.28;1.83;;;15.20;90.80;;;;;;4996057;28;20030;-78
2022/05/22 05:04:26;;;;;;;7.72;2.05;;;15.20;90.70;;;;;;5010531;28;20021;-79
2022/05/22 05:06:52;;;;;;;5.15;2.20;;;15.20;90.70;;;;;;4998872;28;20037;-78
2022/05/22 05:09:18;;;;;;;5.90;2.47;;;15.30;90.60;;;;;;4993904;28;20129;-77
2022/05/22 05:11:44;;;;;;;8.77;2.58;;;15.30;90.60;;;;;;4990817;28;20045;-76
2022/05/22 05:14:10;;;;;;;9.10;2.90;;;15.30;90.60;;;;;;4992525;28;20105;-76
2022/05/22 05:16:35;;;;;;;5.47;2.20;;;15.30;90.60;;;;;;4992196;28;20026;-76
2022/05/22 05:19:01;;;;;;;8.57;2.55;;;15.40;90.60;;;;;;4991148;28;20041;-77
2022/05/22 05:21:27;;;;;;;10.25;2.65;;;15.50;90.60;;;;;;5003701;28;20045;-77
2022/05/22 05:23:55;;;;;;;8.05;2.35;;;15.60;90.60;;;;;;5008920;28;20101;-76
2022/05/22 05:26:20;;;;;;;6.13;2.15;;;15.70;90.70;;;;;;4993192;28;20038;-77
2022/05/22 05:28:46;;;;;;;10.40;2.72;;;15.80;90.50;;;;;;4999759;28;20489;-77
2022/05/22 05:31:11;;;;;;;6.45;2.60;;;15.80;90.50;;;;;;5006662;28;20057;-77
2022/05/22 05:33:37;;;;;;;6.07;2.28;;;15.90;90.50;;;;;;5025788;28;20032;-75
2022/05/22 05:36:03;;;;;;;8.35;2.90;;;16.00;90.40;;;;;;5020646;28;20025;-75
2022/05/22 05:38:30;;;;;;;6.50;3.05;;;16.00;90.30;;;;;;5026995;28;20057;-76
2022/05/22 05:40:55;;;;;;;8.18;2.42;;;16.00;90.20;;;;;;5010238;28;20035;-77
2022/05/22 05:43:21;;;;;;;7.07;2.40;;;16.00;90.00;;;;;;4997868;28;20030;-76
2022/05/22 05:45:47;;;;;;;9.60;2.50;;;16.00;89.90;;;;;;5009742;28;20033;-76
2022/05/22 05:48:12;;;;;;;8.63;2.88;;;16.00;90.00;;;;;;4997164;28;20060;-78
2022/05/22 05:50:38;;;;;;;9.55;2.53;;;16.00;90.00;;;;;;4997761;28;20045;-74
2022/05/22 05:53:03;;;;;;;8.95;2.75;;;16.00;90.10;;;;;;5010024;28;20018;-75
2022/05/22 05:55:29;;;;;;;6.90;2.38;;;16.00;90.10;;;;;;5019559;28;20041;-74
2022/05/22 05:57:57;;;;;;;5.85;2.95;;;16.10;90.20;;;;;;5017404;28;20038;-75
2022/05/22 06:00:24;;;;;;;8.38;2.80;;;16.20;90.00;;;;;;5014450;28;20470;-75
2022/05/22 06:02:49;;;;;;;6.00;2.25;;;16.30;89.80;;;;;;5008368;28;20041;-75
2022/05/22 06:05:16;;;;;;;8.48;3.83;;;16.20;89.90;;;;;;5019964;28;20112;-76
2022/05/22 06:07:41;;;;;;;5.95;2.17;;;16.20;89.80;;;;;;5017538;28;20088;-75
2022/05/22 06:10:11;;;;;;;6.63;2.75;;;16.30;90.00;;;;;;4995457;28;20046;-77
2022/05/22 06:12:37;;;;;;;7.15;3.20;;;16.30;89.80;;;;;;4988389;28;20033;-75
2022/05/22 06:15:02;;;;;;;6.63;2.55;;;16.30;89.60;;;;;;5000075;28;20113;-76
2022/05/22 06:17:33;;;;;;;6.72;2.50;;;16.30;89.40;;;;;;4994408;28;20045;-77
2022/05/22 06:19:59;;;;;;;8.38;2.60;;;16.40;89.50;;;;;;4985676;28;20042;-76
2022/05/22 06:22:27;;;;;;;5.47;1.95;;;16.50;89.90;;;;;;4994548;28;20069;-76
2022/05/22 06:24:53;;;;;;;6.53;2.45;;;16.50;90.00;;;;;;4986677;28;20033;-76
2022/05/22 06:27:19;;;;;;;8.63;2.40;;;16.70;89.70;;;;;;4993975;28;20038;-78
2022/05/22 06:29:44;;;;;;;5.13;2.28;;;16.80;89.50;;;;;;4996200;28;20097;-77
2022/05/22 06:32:12;;;;;;;5.05;2.50;;;16.80;89.30;;;;;;4994397;28;20029;-78
2022/05/22 06:34:41;;;;;;;10.55;2.40;;;17.00;89.40;;;;;;4983206;28;20041;-77
2022/05/22 06:37:08;;;;;;;4.85;2.05;;;17.10;89.20;;;;;;4978757;28;20550;-76
2022/05/22 06:39:50;;;;;;;6.45;2.30;;;17.20;89.00;;;;;;4974992;28;20023;-77
2022/05/22 06:42:18;;;;;;;7.80;2.70;;;17.20;88.30;;;;;;4979563;28;20062;-77
2022/05/22 06:44:44;;;;;;;6.10;2.13;;;17.40;88.10;;;;;;4990167;28;20030;-77
2022/05/22 06:47:10;;;;;;;4.88;2.10;;;17.40;87.70;;;;;;4994856;28;20485;-75
2022/05/22 06:49:35;;;;;;;4.28;2.00;;;17.40;87.10;;;;;;4997031;28;20033;-77
2022/05/22 06:52:01;;;;;;;9.27;2.55;;;17.40;87.00;;;;;;4980209;28;20478;-76
2022/05/22 06:54:30;;;;;;;6.13;2.25;;;17.50;87.10;;;;;;4991540;28;20382;-74
2022/05/22 06:56:56;;;;;;;6.05;2.28;;;17.60;87.30;;;;;;4992015;28;20039;-68
2022/05/22 06:59:22;;;;;;;4.25;1.92;;;17.60;87.10;;;;;;4984509;28;20037;-70
2022/05/22 07:01:47;;;;;;;4.82;1.98;;;17.60;86.40;;;;;;4978630;28;20035;-70
2022/05/22 07:04:14;;;;;;;6.72;2.25;;;17.70;86.10;;;;;;4975365;28;20027;-69
2022/05/22 07:06:39;;;;;;;7.00;1.92;;;17.70;86.10;;;;;;4984125;28;20367;-69
2022/05/22 07:09:05;;;;;;;6.28;1.90;;;17.70;85.80;;;;;;4999549;28;20049;-71
2022/05/22 07:11:39;;;;;;;4.97;1.80;;;17.70;85.50;;;;;;5012213;28;20033;-70
2022/05/22 07:14:07;;;;;;;5.63;2.03;;;17.80;85.10;;;;;;5001781;28;20440;-69
2022/05/22 07:16:34;;;;;;;5.50;2.53;;;17.80;85.20;;;;;;5008004;28;20061;-69
2022/05/22 07:19:00;;;;;;;3.85;1.60;;;17.80;85.60;;;;;;5010864;28;20052;-69
2022/05/22 07:21:26;;;;;;;4.88;1.90;;;17.80;85.30;;;;;;5014162;28;20489;-69
2022/05/22 07:23:52;;;;;;;5.32;1.80;;;17.90;85.20;;;;;;5004170;28;20474;-70
2022/05/22 07:26:19;;;;;;;5.30;1.90;;;17.90;85.10;;;;;;5018462;28;20030;-69
2022/05/22 07:28:45;;;;;;;4.35;1.80;;;17.90;85.20;;;;;;4998990;28;20026;-69
2022/05/22 07:31:20;;;;;;;6.47;1.90;;;17.90;85.20;;;;;;5005612;28;20477;-70
2022/05/22 07:33:46;;;;;;;4.60;2.15;;;17.80;84.70;;;;;;4995640;28;20454;-69
2022/05/22 07:36:12;;;;;;;7.70;1.88;;;17.80;85.20;;;;;;4994540;28;20041;-69
2022/05/22 07:38:37;;;;;;;4.97;2.25;;;17.80;84.90;;;;;;4997741;28;20022;-69
2022/05/22 07:41:03;;;;;;;6.78;2.40;;;17.80;84.70;;;;;;5012714;28;20103;-69
2022/05/22 07:43:28;;;;;;;4.28;1.80;;;17.80;84.60;;;;;;5020925;28;20157;-69
2022/05/22 07:45:54;;;;;;;2.97;1.65;;;17.80;83.90;;;;;;4996051;28;20027;-68
2022/05/22 07:48:20;;;;;;;4.90;1.90;;;17.90;84.60;;;;;;4992385;28;20441;-66
2022/05/22 07:50:46;;;;;;;6.88;1.80;;;18.00;84.00;;;;;;5008572;28;20036;-66
2022/05/22 07:53:12;;;;;;;3.83;1.38;;;18.10;83.50;;;;;;5005064;28;20034;-65
2022/05/22 07:55:39;;;;;;;4.97;1.52;;;18.10;82.90;;;;;;5009007;28;20104;-65
2022/05/22 07:58:05;;;;;;;7.22;2.10;;;18.20;82.00;;;;;;5006609;28;20022;-66
2022/05/22 08:00:30;;;;;;;2.75;1.40;;;18.20;82.10;;;;;;5008925;28;20066;-66
2022/05/22 08:02:56;;;;;;;2.83;1.40;;;18.20;82.60;;;;;;5007565;28;20513;-65
2022/05/22 08:05:22;;;;;;;4.63;1.42;;;18.30;82.30;;;;;;5011643;28;20025;-66
2022/05/22 08:07:47;;;;;;;3.85;1.42;;;18.30;81.00;;;;;;5015743;28;20036;-66
2022/05/22 08:10:15;;;;;;;3.33;1.20;;;18.30;80.80;;;;;;5007425;28;20037;-65
2022/05/22 08:12:43;;;;;;;4.05;1.67;;;18.30;80.40;;;;;;5003445;28;20120;-66
2022/05/22 08:15:10;;;;;;;5.05;1.55;;;18.40;80.20;;;;;;5006867;28;20026;-67
2022/05/22 08:17:36;;;;;;;2.88;1.35;;;18.40;80.20;;;;;;5003814;28;20080;-65
2022/05/22 08:20:07;;;;;;;5.35;1.73;;;18.50;79.30;;;;;;4996651;28;20034;-66
2022/05/22 08:22:33;;;;;;;4.25;1.65;;;18.60;79.00;;;;;;4993493;28;20033;-66
2022/05/22 08:25:01;;;;;;;4.03;1.17;;;18.60;79.10;;;;;;4997138;28;20034;-66
2022/05/22 08:27:29;;;;;;;3.80;1.00;;;18.70;79.80;;;;;;4996171;28;20087;-65
2022/05/22 08:29:55;;;;;;;4.93;1.45;;;18.80;78.70;;;;;;5007477;28;20537;-65
2022/05/22 08:32:20;;;;;;;2.83;1.48;;;18.80;78.50;;;;;;4993981;28;20026;-66
2022/05/22 08:34:46;;;;;;;2.95;1.27;;;18.90;78.60;;;;;;5009545;28;20085;-66
2022/05/22 08:37:12;;;;;;;4.18;1.17;;;19.10;78.00;;;;;;5009336;28;20462;-66
2022/05/22 08:39:37;;;;;;;4.55;1.50;;;19.10;78.10;;;;;;5005221;28;20034;-65
2022/05/22 08:42:08;;;;;;;2.55;1.05;;;19.20;77.90;;;;;;5010059;28;20025;-66
2022/05/22 08:44:34;;;;;;;3.30;1.35;;;19.40;77.70;;;;;;5014121;28;20112;-65
2022/05/22 08:47:21;;;;;;;2.92;1.50;;;19.50;77.20;;;;;;5010304;28;20116;-65
2022/05/22 08:49:57;;;;;;;2.88;1.15;;;19.60;76.90;;;;;;5004309;28;20493;-65
2022/05/22 08:52:42;;;;;;;5.82;1.70;;;19.60;77.30;;;;;;5016600;28;20083;-65
2022/05/22 08:55:16;;;;;;;5.80;1.65;;;19.60;76.50;;;;;;4997630;28;20022;-66
2022/05/22 09:00:38;;;;;;;3.90;1.33;;;19.50;76.90;;;;;;4992616;28;20039;-65
2022/05/22 09:03:17;;;;;;;4.05;1.77;;;19.50;77.00;;;;;;5007303;28;20034;-66
2022/05/22 09:05:44;;;;;;;5.78;1.55;;;19.50;76.20;;;;;;4995556;28;20030;-66
2022/05/22 09:08:19;;;;;;;3.17;1.48;;;19.50;76.20;;;;;;5007800;28;20076;-66
2022/05/22 09:11:10;;;;;;;3.03;1.50;;;19.50;76.20;;;;;;5002396;28;20091;-66
2022/05/22 09:13:46;;;;;;;4.78;1.45;;;19.50;76.00;;;;;;4996703;28;20033;-66
2022/05/22 09:16:28;;;;;;;3.10;1.30;;;19.30;75.20;;;;;;5005778;28;20338;-65
2022/05/22 09:19:07;;;;;;;7.20;1.85;;;19.20;75.90;;;;;;5012464;28;20086;-64
2022/05/22 09:22:03;;;;;;;3.15;1.20;;;19.20;76.10;;;;;;5014025;28;20040;-67
2022/05/22 09:24:49;;;;;;;2.72;1.60;;;19.10;75.50;;;;;;5005911;28;20038;-66
2022/05/22 09:27:32;;;;;;;3.88;1.30;;;19.10;75.60;;;;;;5027220;28;20056;-66
2022/05/22 09:30:06;;;;;;;4.47;1.80;;;19.20;75.50;;;;;;5016384;28;20071;-66
2022/05/22 09:32:58;;;;;;;5.68;2.22;;;19.10;75.20;;;;;;5002437;28;20034;-66
2022/05/22 09:35:50;;;;;;;3.50;1.50;;;19.20;75.50;;;;;;5020196;28;20040;-66
2022/05/22 09:38:40;;;;;;;3.45;1.50;;;19.30;75.40;;;;;;5009893;28;20708;-66
2022/05/22 09:41:22;;;;;;;4.20;1.50;;;19.30;75.60;;;;;;5015270;28;20033;-66
2022/05/22 09:44:16;;;;;;;4.32;1.23;;;19.50;76.10;;;;;;5022312;28;20030;-66
2022/05/22 09:47:05;;;;;;;2.60;1.50;;;19.70;75.80;;;;;;5011706;28;20126;-66
2022/05/22 09:49:53;;;;;;;5.30;1.70;;;19.80;76.40;;;;;;5001408;28;20026;-66
2022/05/22 09:52:25;;;;;;;7.38;1.70;;;20.00;76.50;;;;;;5000399;28;20038;-66
2022/05/22 09:55:05;;;;;;;4.65;2.40;;;20.00;75.30;;;;;;4996933;28;20041;-66
2022/05/22 09:57:37;;;;;;;2.80;1.55;;;20.10;75.80;;;;;;5011640;28;20116;-66
2022/05/22 10:00:11;;;;;;;3.13;1.55;;;20.20;75.70;;;;;;4995004;28;20057;-65
2022/05/22 10:02:46;;;;;;;4.18;1.50;;;20.30;75.20;;;;;;5016983;28;20045;-65
2022/05/22 10:05:23;;;;;;;2.58;1.30;;;20.40;74.20;;;;;;5023258;28;20052;-65
2022/05/22 10:07:57;;;;;;;3.50;1.70;;;20.40;72.80;;;;;;5013030;28;20030;-65
2022/05/22 10:10:42;;;;;;;4.85;1.95;;;20.30;72.10;;;;;;5009534;28;20030;-65
2022/05/22 10:13:26;;;;;;;2.13;1.20;;;20.20;72.70;;;;;;4994696;28;20172;-65
2022/05/22 10:16:33;;;;;;;4.88;1.35;;;20.30;73.00;;;;;;5025504;28;20033;-65
2022/05/22 10:19:01;;;;;;;4.35;1.60;;;20.40;71.30;;;;;;5013114;28;20049;-65
2022/05/22 10:21:48;;;;;;;1.95;1.23;;;20.40;71.20;;;;;;5005373;28;20049;-64
2022/05/22 10:24:52;;;;;;;3.97;1.65;;;20.40;71.20;;;;;;5012540;28;20030;-64
2022/05/22 10:27:43;;;;;;;4.72;1.63;;;20.30;70.30;;;;;;4989155;28;20476;-63
2022/05/22 10:30:23;;;;;;;3.33;1.27;;;20.30;70.60;;;;;;5011228;28;20034;-62
2022/05/22 10:33:00;;;;;;;2.80;1.30;;;20.30;71.20;;;;;;5010736;28;20485;-63
2022/05/22 10:35:47;;;;;;;3.78;1.60;;;20.30;70.80;;;;;;4999803;28;20375;-63
2022/05/22 10:38:22;;;;;;;4.13;1.30;;;20.30;70.90;;;;;;5016194;28;20092;-63
2022/05/22 10:43:40;;;;;;;2.85;1.40;;;20.30;70.70;;;;;;5019373;28;20096;-63
2022/05/22 10:46:06;;;;;;;4.32;1.38;;;20.40;71.10;;;;;;5027674;28;20033;-64
2022/05/22 10:48:34;;;;;;;5.55;1.35;;;20.40;70.10;;;;;;5006070;28;20025;-64
2022/05/22 10:51:10;;;;;;;4.88;1.42;;;20.40;68.90;;;;;;5006059;28;20034;-63
2022/05/22 10:53:37;;;;;;;3.95;1.55;;;20.40;69.10;;;;;;5010493;28;20113;-63
2022/05/22 10:56:21;;;;;;;5.07;1.40;;;20.50;69.00;;;;;;5026077;28;20037;-62
2022/05/22 10:59:02;;;;;;;3.85;1.90;;;20.50;68.70;;;;;;5009147;28;20053;-63
2022/05/22 11:01:36;;;;;;;2.78;1.30;;;20.60;67.80;;;;;;5014477;28;20038;-63
2022/05/22 11:04:12;;;;;;;3.33;1.98;;;20.60;68.70;;;;;;5001531;28;20030;-63
2022/05/22 11:06:52;;;;;;;3.25;1.23;;;20.60;68.40;;;;;;5006005;28;20114;-63
2022/05/22 11:09:24;;;;;;;3.30;1.40;;;20.60;68.60;;;;;;5007370;28;20129;-64
2022/05/22 11:11:51;;;;;;;4.55;1.65;;;20.60;68.10;;;;;;5026755;28;20041;-64
2022/05/22 11:14:21;;;;;;;4.07;1.60;;;20.50;68.70;;;;;;5003927;28;20078;-64
2022/05/22 11:16:47;;;;;;;3.67;1.63;;;20.50;68.50;;;;;;5010415;28;20030;-64
2022/05/22 11:19:23;;;;;;;4.68;1.73;;;20.50;69.10;;;;;;5006955;28;20034;-64
2022/05/22 11:22:20;;;;;;;2.30;1.38;;;20.60;69.40;;;;;;5010356;28;20046;-64
2022/05/22 11:25:18;;;;;;;4.22;1.30;;;20.60;69.60;;;;;;5002914;28;20029;-65
2022/05/22 11:28:04;;;;;;;4.85;1.60;;;20.70;69.40;;;;;;5009977;28;20037;-64
2022/05/22 11:30:49;;;;;;;3.55;1.50;;;20.70;68.80;;;;;;4993231;28;20500;-64
2022/05/22 11:33:30;;;;;;;3.13;1.30;;;20.80;68.80;;;;;;4993548;28;20033;-64
2022/05/22 11:36:20;;;;;;;4.30;1.83;;;21.00;68.50;;;;;;4992865;28;20101;-65
2022/05/22 11:38:53;;;;;;;2.17;1.35;;;21.00;68.10;;;;;;4993807;28;20038;-64
2022/05/22 11:41:28;;;;;;;4.80;1.50;;;21.10;68.50;;;;;;5001781;28;20034;-62
2022/05/22 11:44:15;;;;;;;2.50;1.23;;;21.20;65.70;;;;;;5010369;28;20026;-63
2022/05/22 11:47:06;;;;;;;5.13;1.90;;;21.20;65.80;;;;;;5006907;28;20463;-63
2022/05/22 11:49:54;;;;;;;3.45;1.48;;;21.20;65.90;;;;;;5018333;28;20073;-63
2022/05/22 11:55:13;;;;;;;3.17;1.52;;;21.10;65.30;;;;;;5010689;28;20034;-62
2022/05/22 11:58:00;;;;;;;2.80;1.10;;;21.10;65.00;;;;;;5003039;28;20159;-64
2022/05/22 12:01:04;;;;;;;5.88;1.50;;;20.90;65.40;;;;;;4991005;28;20077;-63
2022/05/22 12:03:30;;;;;;;5.50;1.33;;;20.80;65.50;;;;;;5000901;28;20018;-64
2022/05/22 12:06:16;;;;;;;2.40;1.33;;;20.80;65.50;;;;;;5010441;28;20113;-63
2022/05/22 12:09:19;;;;;;;2.22;1.33;;;20.80;65.00;;;;;;5001613;28;20064;-63
2022/05/22 12:11:58;;;;;;;5.55;2.10;;;20.80;65.00;;;;;;5010352;28;20029;-63
2022/05/22 12:14:36;;;;;;;4.65;2.05;;;20.90;65.00;;;;;;5013825;28;20096;-62
2022/05/22 12:17:25;;;;;;;3.50;1.65;;;20.90;64.30;;;;;;5027620;28;20052;-63
2022/05/22 12:20:13;;;;;;;4.35;1.90;;;20.90;64.00;;;;;;5004730;28;20374;-63
2022/05/22 12:23:07;;;;;;;3.63;1.80;;;20.90;65.00;;;;;;5008393;28;20046;-63
2022/05/22 12:25:35;;;;;;;2.55;1.42;;;20.90;63.50;;;;;;4998407;28;20032;-63
2022/05/22 12:28:05;;;;;;;3.95;1.30;;;20.90;63.70;;;;;;5004105;28;20034;-63
2022/05/22 12:30:39;;;;;;;5.63;1.80;;;21.00;63.10;;;;;;5006176;28;20523;-63
2022/05/22 12:33:11;;;;;;;3.53;1.23;;;21.00;63.50;;;;;;4997726;28;20409;-63
2022/05/22 12:35:39;;;;;;;1.95;1.08;;;21.10;63.90;;;;;;5004926;28;20038;-63
2022/05/22 12:38:12;;;;;;;2.78;1.38;;;21.20;62.90;;;;;;5004208;28;20366;-63
2022/05/22 12:41:06;;;;;;;4.57;1.27;;;21.30;63.20;;;;;;5003661;28;20046;-63
2022/05/22 12:43:33;;;;;;;2.25;1.20;;;21.40;63.60;;;;;;5009466;28;20400;-64
2022/05/22 12:46:03;;;;;;;4.40;1.77;;;21.50;62.80;;;;;;5004482;28;20065;-64
2022/05/22 12:48:32;;;;;;;3.83;2.13;;;21.40;61.80;;;;;;4991214;28;20026;-64
2022/05/22 12:51:17;;;;;;;4.22;2.05;;;21.20;61.20;;;;;;5002614;28;20437;-63
2022/05/22 12:53:51;;;;;;;2.42;1.50;;;21.00;60.90;;;;;;5008558;28;20433;-64
2022/05/22 12:56:26;;;;;;;3.80;1.50;;;20.90;60.30;;;;;;5009527;28;20116;-64
2022/05/22 12:58:57;;;;;;;3.97;1.63;;;20.80;61.40;;;;;;5008847;28;20386;-63
2022/05/22 13:01:28;;;;;;;3.28;1.30;;;20.80;61.90;;;;;;5014902;28;20040;-63
2022/05/22 13:04:23;;;;;;;4.00;1.40;;;20.80;62.70;;;;;;5007869;28;20378;-63
2022/05/22 13:06:51;;;;;;;3.13;2.13;;;21.00;62.60;;;;;;5005859;28;20472;-64
2022/05/22 13:09:30;;;;;;;5.25;1.67;;;21.30;62.70;;;;;;5009333;28;20472;-64
2022/05/22 13:11:59;;;;;;;3.22;1.30;;;21.40;62.30;;;;;;5014080;28;20041;-64
2022/05/22 13:14:32;;;;;;;3.72;1.40;;;21.70;62.00;;;;;;5004054;28;20478;-63
2022/05/22 13:16:59;;;;;;;4.05;1.10;;;21.70;61.20;;;;;;5009827;28;20042;-63
2022/05/22 13:19:28;;;;;;;5.80;1.80;;;21.80;61.40;;;;;;5009865;28;20040;-63